Grambling, Louisiana
Current Conditions -  °F | °C
As of 5:35 PM on Thursday 18 Dec 2014 (Local Time) from KRSN Reporting Station
Overcast Overcast  
Wind Chill: 51°   Ceiling: 4000
Heat Index: 51°   Visibility: 10mi
Dew Point: 48°   Wind: 0mph
Humidity: 90%   Direction: NA
Pressure: 30.17"   Gusts: NA
Location:  32.53°N, 92.72°W
Report Text: KRSN 182335Z AUTO 00000KT 10SM OVC040 11/09 A3017 RMK AO2 T01050090
Loading
Personal Weather Stations






























Interactive Weather Map New forecast layout! Learn more

10-Day Weather Forecast

Advertisements
Track Severe Weather on mobile